sensor_id;sensor_type;location;lat;lon;timestamp;P1;durP1;ratioP1;P2;durP2;ratioP2
82170;SDS011;71755;48.038;14.346;2023-09-19T00:00:19;1.75;;;0.88;;
82170;SDS011;71755;48.038;14.346;2023-09-19T00:02:56;1.85;;;1.05;;
82170;SDS011;71755;48.038;14.346;2023-09-19T00:05:28;5.88;;;1.13;;
82170;SDS011;71755;48.038;14.346;2023-09-19T00:07:56;0.50;;;0.50;;
82170;SDS011;71755;48.038;14.346;2023-09-19T00:10:26;1.75;;;0.43;;
82170;SDS011;71755;48.038;14.346;2023-09-19T00:12:58;2.65;;;0.93;;
82170;SDS011;71755;48.038;14.346;2023-09-19T00:15:25;0.55;;;0.55;;
82170;SDS011;71755;48.038;14.346;2023-09-19T00:17:55;4.22;;;0.60;;
82170;SDS011;71755;48.038;14.346;2023-09-19T00:20:22;2.53;;;1.30;;
82170;SDS011;71755;48.038;14.346;2023-09-19T00:22:49;0.55;;;0.50;;
82170;SDS011;71755;48.038;14.346;2023-09-19T00:25:17;2.28;;;0.43;;
82170;SDS011;71755;48.038;14.346;2023-09-19T00:27:43;3.13;;;0.65;;
82170;SDS011;71755;48.038;14.346;2023-09-19T00:30:11;0.75;;;0.60;;
82170;SDS011;71755;48.038;14.346;2023-09-19T00:32:50;0.60;;;0.47;;
82170;SDS011;71755;48.038;14.346;2023-09-19T00:35:20;1.23;;;0.60;;
82170;SDS011;71755;48.038;14.346;2023-09-19T00:37:50;0.85;;;0.73;;
82170;SDS011;71755;48.038;14.346;2023-09-19T00:40:16;1.15;;;0.80;;
82170;SDS011;71755;48.038;14.346;2023-09-19T00:42:43;0.68;;;0.50;;
82170;SDS011;71755;48.038;14.346;2023-09-19T00:45:10;0.80;;;0.65;;
82170;SDS011;71755;48.038;14.346;2023-09-19T00:47:44;1.42;;;0.60;;
82170;SDS011;71755;48.038;14.346;2023-09-19T00:50:17;1.30;;;0.68;;
82170;SDS011;71755;48.038;14.346;2023-09-19T00:52:46;0.73;;;0.55;;
82170;SDS011;71755;48.038;14.346;2023-09-19T00:55:15;5.60;;;0.65;;
82170;SDS011;71755;48.038;14.346;2023-09-19T00:57:45;1.63;;;0.80;;
82170;SDS011;71755;48.038;14.346;2023-09-19T01:00:13;1.30;;;0.82;;
82170;SDS011;71755;48.038;14.346;2023-09-19T01:02:44;1.00;;;0.85;;
82170;SDS011;71755;48.038;14.346;2023-09-19T01:05:10;0.52;;;0.52;;
82170;SDS011;71755;48.038;14.346;2023-09-19T01:07:38;1.45;;;0.60;;
82170;SDS011;71755;48.038;14.346;2023-09-19T01:10:17;0.75;;;0.43;;
82170;SDS011;71755;48.038;14.346;2023-09-19T01:28:53;4.10;;;1.35;;
82170;SDS011;71755;48.038;14.346;2023-09-19T01:31:45;0.80;;;0.47;;
82170;SDS011;71755;48.038;14.346;2023-09-19T01:34:12;0.98;;;0.70;;
82170;SDS011;71755;48.038;14.346;2023-09-19T01:36:38;0.90;;;0.60;;
82170;SDS011;71755;48.038;14.346;2023-09-19T01:39:08;2.08;;;0.80;;
82170;SDS011;71755;48.038;14.346;2023-09-19T01:44:29;0.75;;;0.35;;
82170;SDS011;71755;48.038;14.346;2023-09-19T01:47:09;1.33;;;0.45;;
82170;SDS011;71755;48.038;14.346;2023-09-19T01:52:36;2.55;;;0.75;;
82170;SDS011;71755;48.038;14.346;2023-09-19T01:55:11;1.02;;;0.70;;
82170;SDS011;71755;48.038;14.346;2023-09-19T02:00:25;1.13;;;0.77;;
82170;SDS011;71755;48.038;14.346;2023-09-19T02:02:55;5.30;;;1.30;;
82170;SDS011;71755;48.038;14.346;2023-09-19T02:05:24;2.05;;;0.57;;
82170;SDS011;71755;48.038;14.346;2023-09-19T02:07:52;1.23;;;0.63;;
82170;SDS011;71755;48.038;14.346;2023-09-19T02:10:19;0.65;;;0.60;;
82170;SDS011;71755;48.038;14.346;2023-09-19T02:12:46;4.57;;;0.90;;
82170;SDS011;71755;48.038;14.346;2023-09-19T02:15:12;1.17;;;0.85;;
82170;SDS011;71755;48.038;14.346;2023-09-19T02:17:41;3.05;;;0.82;;
82170;SDS011;71755;48.038;14.346;2023-09-19T02:20:10;0.75;;;0.50;;
82170;SDS011;71755;48.038;14.346;2023-09-19T02:22:40;1.23;;;0.77;;
82170;SDS011;71755;48.038;14.346;2023-09-19T02:25:07;0.82;;;0.50;;
82170;SDS011;71755;48.038;14.346;2023-09-19T02:27:34;1.38;;;0.85;;
82170;SDS011;71755;48.038;14.346;2023-09-19T02:30:01;1.17;;;0.52;;
82170;SDS011;71755;48.038;14.346;2023-09-19T02:32:28;1.42;;;0.70;;
82170;SDS011;71755;48.038;14.346;2023-09-19T02:34:56;0.80;;;0.50;;
82170;SDS011;71755;48.038;14.346;2023-09-19T02:37:24;1.25;;;0.70;;
82170;SDS011;71755;48.038;14.346;2023-09-19T02:39:50;2.92;;;0.88;;
82170;SDS011;71755;48.038;14.346;2023-09-19T02:42:16;2.60;;;0.80;;
82170;SDS011;71755;48.038;14.346;2023-09-19T02:44:42;1.45;;;0.60;;
82170;SDS011;71755;48.038;14.346;2023-09-19T02:47:12;0.50;;;0.50;;
82170;SDS011;71755;48.038;14.346;2023-09-19T02:49:40;0.75;;;0.70;;
82170;SDS011;71755;48.038;14.346;2023-09-19T02:52:08;3.20;;;1.02;;
82170;SDS011;71755;48.038;14.346;2023-09-19T02:54:36;0.93;;;0.80;;
82170;SDS011;71755;48.038;14.346;2023-09-19T02:57:02;1.45;;;0.85;;
82170;SDS011;71755;48.038;14.346;2023-09-19T02:59:32;2.08;;;0.70;;
82170;SDS011;71755;48.038;14.346;2023-09-19T03:01:59;1.88;;;0.55;;
82170;SDS011;71755;48.038;14.346;2023-09-19T03:04:25;2.55;;;0.73;;
82170;SDS011;71755;48.038;14.346;2023-09-19T03:06:53;0.90;;;0.52;;
82170;SDS011;71755;48.038;14.346;2023-09-19T03:09:24;2.72;;;1.13;;
82170;SDS011;71755;48.038;14.346;2023-09-19T03:11:50;4.50;;;0.80;;
82170;SDS011;71755;48.038;14.346;2023-09-19T03:14:16;4.05;;;0.55;;
82170;SDS011;71755;48.038;14.346;2023-09-19T03:16:42;1.45;;;1.08;;
82170;SDS011;71755;48.038;14.346;2023-09-19T03:19:09;2.00;;;0.90;;
82170;SDS011;71755;48.038;14.346;2023-09-19T03:21:36;0.98;;;0.60;;
82170;SDS011;71755;48.038;14.346;2023-09-19T03:24:04;1.13;;;0.55;;
82170;SDS011;71755;48.038;14.346;2023-09-19T03:26:31;0.70;;;0.40;;
82170;SDS011;71755;48.038;14.346;2023-09-19T03:28:58;2.45;;;0.73;;
82170;SDS011;71755;48.038;14.346;2023-09-19T03:31:24;3.47;;;0.68;;
82170;SDS011;71755;48.038;14.346;2023-09-19T03:33:51;1.50;;;0.57;;
82170;SDS011;71755;48.038;14.346;2023-09-19T03:36:17;1.13;;;0.95;;
82170;SDS011;71755;48.038;14.346;2023-09-19T03:38:43;2.05;;;0.80;;
82170;SDS011;71755;48.038;14.346;2023-09-19T03:41:09;4.15;;;0.50;;
82170;SDS011;71755;48.038;14.346;2023-09-19T03:43:39;1.33;;;0.60;;
82170;SDS011;71755;48.038;14.346;2023-09-19T03:46:05;0.50;;;0.50;;
82170;SDS011;71755;48.038;14.346;2023-09-19T03:48:31;1.20;;;1.10;;
82170;SDS011;71755;48.038;14.346;2023-09-19T03:50:57;1.05;;;0.70;;
82170;SDS011;71755;48.038;14.346;2023-09-19T03:53:23;1.27;;;0.70;;
82170;SDS011;71755;48.038;14.346;2023-09-19T03:55:49;0.30;;;0.30;;
82170;SDS011;71755;48.038;14.346;2023-09-19T03:58:15;1.65;;;0.50;;
82170;SDS011;71755;48.038;14.346;2023-09-19T04:00:41;0.63;;;0.50;;
82170;SDS011;71755;48.038;14.346;2023-09-19T04:03:07;3.00;;;0.85;;
82170;SDS011;71755;48.038;14.346;2023-09-19T04:05:34;2.75;;;0.98;;
82170;SDS011;71755;48.038;14.346;2023-09-19T04:08:00;1.13;;;0.60;;
82170;SDS011;71755;48.038;14.346;2023-09-19T04:10:26;1.75;;;0.70;;
82170;SDS011;71755;48.038;14.346;2023-09-19T04:12:54;1.13;;;1.10;;
82170;SDS011;71755;48.038;14.346;2023-09-19T04:15:21;1.73;;;0.63;;
82170;SDS011;71755;48.038;14.346;2023-09-19T04:17:51;2.08;;;0.80;;
82170;SDS011;71755;48.038;14.346;2023-09-19T04:20:18;1.45;;;0.73;;
82170;SDS011;71755;48.038;14.346;2023-09-19T04:22:50;1.70;;;0.70;;
82170;SDS011;71755;48.038;14.346;2023-09-19T04:25:17;1.00;;;0.70;;
82170;SDS011;71755;48.038;14.346;2023-09-19T04:27:44;1.25;;;0.70;;
82170;SDS011;71755;48.038;14.346;2023-09-19T04:30:10;2.38;;;0.65;;
82170;SDS011;71755;48.038;14.346;2023-09-19T04:32:38;1.42;;;0.85;;
82170;SDS011;71755;48.038;14.346;2023-09-19T04:35:08;1.10;;;0.70;;
82170;SDS011;71755;48.038;14.346;2023-09-19T04:37:38;1.20;;;0.60;;
82170;SDS011;71755;48.038;14.346;2023-09-19T04:40:07;0.77;;;0.65;;
82170;SDS011;71755;48.038;14.346;2023-09-19T04:42:39;1.35;;;0.77;;
82170;SDS011;71755;48.038;14.346;2023-09-19T04:45:05;3.40;;;1.08;;
82170;SDS011;71755;48.038;14.346;2023-09-19T04:47:32;3.00;;;0.50;;
82170;SDS011;71755;48.038;14.346;2023-09-19T04:49:58;1.65;;;0.73;;
82170;SDS011;71755;48.038;14.346;2023-09-19T04:52:24;1.35;;;0.63;;
82170;SDS011;71755;48.038;14.346;2023-09-19T04:54:50;0.85;;;0.60;;
82170;SDS011;71755;48.038;14.346;2023-09-19T04:57:16;0.70;;;0.70;;
82170;SDS011;71755;48.038;14.346;2023-09-19T04:59:42;4.13;;;0.77;;
82170;SDS011;71755;48.038;14.346;2023-09-19T05:02:08;1.73;;;1.00;;
82170;SDS011;71755;48.038;14.346;2023-09-19T05:04:35;0.60;;;0.60;;
82170;SDS011;71755;48.038;14.346;2023-09-19T05:07:01;1.67;;;0.95;;
82170;SDS011;71755;48.038;14.346;2023-09-19T05:09:29;0.88;;;0.70;;
82170;SDS011;71755;48.038;14.346;2023-09-19T05:11:55;4.22;;;0.95;;
82170;SDS011;71755;48.038;14.346;2023-09-19T05:14:22;1.15;;;0.60;;
82170;SDS011;71755;48.038;14.346;2023-09-19T05:16:48;4.53;;;0.90;;
82170;SDS011;71755;48.038;14.346;2023-09-19T05:19:14;4.90;;;0.88;;
82170;SDS011;71755;48.038;14.346;2023-09-19T05:21:40;1.92;;;1.10;;
82170;SDS011;71755;48.038;14.346;2023-09-19T05:24:06;0.70;;;0.70;;
82170;SDS011;71755;48.038;14.346;2023-09-19T05:26:33;1.92;;;1.02;;
82170;SDS011;71755;48.038;14.346;2023-09-19T05:28:58;2.90;;;0.63;;
82170;SDS011;71755;48.038;14.346;2023-09-19T05:31:24;0.90;;;0.60;;
82170;SDS011;71755;48.038;14.346;2023-09-19T05:33:50;2.55;;;1.10;;
82170;SDS011;71755;48.038;14.346;2023-09-19T05:36:16;3.53;;;0.98;;
82170;SDS011;71755;48.038;14.346;2023-09-19T05:38:42;5.47;;;1.20;;
82170;SDS011;71755;48.038;14.346;2023-09-19T05:41:10;1.98;;;0.60;;
82170;SDS011;71755;48.038;14.346;2023-09-19T05:43:39;1.17;;;0.63;;
82170;SDS011;71755;48.038;14.346;2023-09-19T05:46:06;7.75;;;0.95;;
82170;SDS011;71755;48.038;14.346;2023-09-19T05:48:33;9.32;;;1.02;;
82170;SDS011;71755;48.038;14.346;2023-09-19T05:50:59;1.02;;;0.88;;
82170;SDS011;71755;48.038;14.346;2023-09-19T05:53:26;2.20;;;0.80;;
82170;SDS011;71755;48.038;14.346;2023-09-19T05:55:52;1.13;;;0.75;;
82170;SDS011;71755;48.038;14.346;2023-09-19T05:58:21;1.25;;;1.10;;
82170;SDS011;71755;48.038;14.346;2023-09-19T06:00:47;2.75;;;0.80;;
82170;SDS011;71755;48.038;14.346;2023-09-19T06:03:14;2.13;;;1.10;;
82170;SDS011;71755;48.038;14.346;2023-09-19T06:05:41;3.17;;;1.17;;
82170;SDS011;71755;48.038;14.346;2023-09-19T06:08:07;2.58;;;0.60;;
82170;SDS011;71755;48.038;14.346;2023-09-19T06:10:33;2.35;;;0.80;;
82170;SDS011;71755;48.038;14.346;2023-09-19T06:13:01;1.02;;;0.50;;
82170;SDS011;71755;48.038;14.346;2023-09-19T06:15:31;2.85;;;0.80;;
82170;SDS011;71755;48.038;14.346;2023-09-19T06:17:59;1.20;;;1.10;;
82170;SDS011;71755;48.038;14.346;2023-09-19T06:20:25;1.92;;;0.82;;
82170;SDS011;71755;48.038;14.346;2023-09-19T06:22:53;4.55;;;1.00;;
82170;SDS011;71755;48.038;14.346;2023-09-19T06:25:19;2.58;;;0.77;;
82170;SDS011;71755;48.038;14.346;2023-09-19T06:27:48;1.25;;;0.82;;
82170;SDS011;71755;48.038;14.346;2023-09-19T06:30:17;1.52;;;0.93;;
82170;SDS011;71755;48.038;14.346;2023-09-19T06:32:44;5.22;;;1.65;;
82170;SDS011;71755;48.038;14.346;2023-09-19T06:35:11;4.82;;;1.20;;
82170;SDS011;71755;48.038;14.346;2023-09-19T06:37:42;0.90;;;0.70;;
82170;SDS011;71755;48.038;14.346;2023-09-19T06:40:09;1.30;;;0.70;;
82170;SDS011;71755;48.038;14.346;2023-09-19T06:42:46;1.83;;;0.75;;
82170;SDS011;71755;48.038;14.346;2023-09-19T06:45:15;2.72;;;1.00;;
82170;SDS011;71755;48.038;14.346;2023-09-19T06:47:47;0.77;;;0.60;;
82170;SDS011;71755;48.038;14.346;2023-09-19T06:50:19;3.60;;;1.13;;
82170;SDS011;71755;48.038;14.346;2023-09-19T06:52:51;2.45;;;1.25;;
82170;SDS011;71755;48.038;14.346;2023-09-19T06:55:21;1.15;;;0.80;;
82170;SDS011;71755;48.038;14.346;2023-09-19T06:57:53;1.38;;;0.88;;
82170;SDS011;71755;48.038;14.346;2023-09-19T07:00:20;1.23;;;0.88;;
82170;SDS011;71755;48.038;14.346;2023-09-19T07:05:22;2.15;;;1.05;;
82170;SDS011;71755;48.038;14.346;2023-09-19T07:07:48;2.50;;;1.00;;
82170;SDS011;71755;48.038;14.346;2023-09-19T07:10:14;5.35;;;1.33;;
82170;SDS011;71755;48.038;14.346;2023-09-19T07:12:41;1.63;;;0.90;;
82170;SDS011;71755;48.038;14.346;2023-09-19T07:15:07;2.17;;;0.80;;
82170;SDS011;71755;48.038;14.346;2023-09-19T07:17:34;2.42;;;1.10;;
82170;SDS011;71755;48.038;14.346;2023-09-19T07:20:00;1.95;;;0.68;;
82170;SDS011;71755;48.038;14.346;2023-09-19T07:22:26;2.38;;;0.90;;
82170;SDS011;71755;48.038;14.346;2023-09-19T07:24:52;1.67;;;0.82;;
82170;SDS011;71755;48.038;14.346;2023-09-19T07:27:20;1.67;;;0.85;;
82170;SDS011;71755;48.038;14.346;2023-09-19T07:29:47;0.95;;;0.93;;
82170;SDS011;71755;48.038;14.346;2023-09-19T07:32:13;0.55;;;0.50;;
82170;SDS011;71755;48.038;14.346;2023-09-19T07:34:42;8.45;;;1.20;;
82170;SDS011;71755;48.038;14.346;2023-09-19T07:37:10;3.70;;;0.80;;
82170;SDS011;71755;48.038;14.346;2023-09-19T07:39:36;1.88;;;0.90;;
82170;SDS011;71755;48.038;14.346;2023-09-19T07:42:02;1.60;;;0.73;;
82170;SDS011;71755;48.038;14.346;2023-09-19T07:44:28;3.17;;;0.82;;
82170;SDS011;71755;48.038;14.346;2023-09-19T07:46:54;1.25;;;0.77;;
82170;SDS011;71755;48.038;14.346;2023-09-19T07:49:20;0.95;;;0.73;;
82170;SDS011;71755;48.038;14.346;2023-09-19T07:51:46;2.00;;;0.80;;
82170;SDS011;71755;48.038;14.346;2023-09-19T07:54:13;3.95;;;0.90;;
82170;SDS011;71755;48.038;14.346;2023-09-19T07:56:40;2.80;;;0.68;;
82170;SDS011;71755;48.038;14.346;2023-09-19T07:59:06;1.23;;;0.93;;
82170;SDS011;71755;48.038;14.346;2023-09-19T08:01:33;5.32;;;1.05;;
82170;SDS011;71755;48.038;14.346;2023-09-19T08:04:00;1.02;;;0.90;;
82170;SDS011;71755;48.038;14.346;2023-09-19T08:06:26;2.40;;;0.98;;
82170;SDS011;71755;48.038;14.346;2023-09-19T08:08:55;6.95;;;1.00;;
82170;SDS011;71755;48.038;14.346;2023-09-19T08:11:22;2.10;;;0.80;;
82170;SDS011;71755;48.038;14.346;2023-09-19T08:13:50;1.77;;;0.80;;
82170;SDS011;71755;48.038;14.346;2023-09-19T08:16:16;1.27;;;0.88;;
82170;SDS011;71755;48.038;14.346;2023-09-19T08:18:48;2.15;;;0.88;;
82170;SDS011;71755;48.038;14.346;2023-09-19T08:21:18;0.55;;;0.50;;
82170;SDS011;71755;48.038;14.346;2023-09-19T08:23:44;0.85;;;0.68;;
82170;SDS011;71755;48.038;14.346;2023-09-19T08:26:11;2.38;;;1.10;;
82170;SDS011;71755;48.038;14.346;2023-09-19T08:28:37;0.90;;;0.68;;
82170;SDS011;71755;48.038;14.346;2023-09-19T08:31:06;1.15;;;0.70;;
82170;SDS011;71755;48.038;14.346;2023-09-19T08:33:35;1.90;;;0.80;;
82170;SDS011;71755;48.038;14.346;2023-09-19T08:36:02;2.58;;;1.23;;
82170;SDS011;71755;48.038;14.346;2023-09-19T08:38:33;1.13;;;0.80;;
82170;SDS011;71755;48.038;14.346;2023-09-19T08:41:05;2.83;;;1.20;;
82170;SDS011;71755;48.038;14.346;2023-09-19T08:43:33;1.85;;;0.90;;
82170;SDS011;71755;48.038;14.346;2023-09-19T08:48:44;0.65;;;0.60;;
82170;SDS011;71755;48.038;14.346;2023-09-19T08:51:21;3.00;;;1.17;;
82170;SDS011;71755;48.038;14.346;2023-09-19T08:56:32;4.60;;;0.70;;
82170;SDS011;71755;48.038;14.346;2023-09-19T08:59:00;1.52;;;0.90;;
82170;SDS011;71755;48.038;14.346;2023-09-19T09:01:33;1.85;;;0.73;;
82170;SDS011;71755;48.038;14.346;2023-09-19T09:04:01;1.90;;;0.80;;
82170;SDS011;71755;48.038;14.346;2023-09-19T09:06:28;1.17;;;0.80;;
82170;SDS011;71755;48.038;14.346;2023-09-19T09:08:55;1.55;;;0.93;;
82170;SDS011;71755;48.038;14.346;2023-09-19T09:11:21;2.42;;;0.65;;
82170;SDS011;71755;48.038;14.346;2023-09-19T09:13:50;0.57;;;0.57;;
82170;SDS011;71755;48.038;14.346;2023-09-19T09:16:16;1.98;;;0.70;;
82170;SDS011;71755;48.038;14.346;2023-09-19T09:18:45;1.75;;;0.88;;
82170;SDS011;71755;48.038;14.346;2023-09-19T09:21:18;0.77;;;0.55;;
82170;SDS011;71755;48.038;14.346;2023-09-19T09:23:50;1.02;;;0.70;;
82170;SDS011;71755;48.038;14.346;2023-09-19T09:26:51;0.80;;;0.60;;
82170;SDS011;71755;48.038;14.346;2023-09-19T09:29:12;2.08;;;0.80;;
82170;SDS011;71755;48.038;14.346;2023-09-19T09:31:39;1.05;;;0.90;;
82170;SDS011;71755;48.038;14.346;2023-09-19T09:34:08;0.88;;;0.70;;
82170;SDS011;71755;48.038;14.346;2023-09-19T09:36:35;1.70;;;0.68;;
82170;SDS011;71755;48.038;14.346;2023-09-19T09:39:04;1.83;;;0.75;;
82170;SDS011;71755;48.038;14.346;2023-09-19T09:41:50;1.40;;;0.50;;
82170;SDS011;71755;48.038;14.346;2023-09-19T09:44:17;1.42;;;0.70;;
82170;SDS011;71755;48.038;14.346;2023-09-19T09:46:45;1.90;;;1.15;;
82170;SDS011;71755;48.038;14.346;2023-09-19T09:49:23;1.73;;;0.95;;
82170;SDS011;71755;48.038;14.346;2023-09-19T09:52:02;4.35;;;0.70;;
82170;SDS011;71755;48.038;14.346;2023-09-19T09:54:34;4.00;;;1.40;;
82170;SDS011;71755;48.038;14.346;2023-09-19T09:57:04;1.90;;;0.93;;
82170;SDS011;71755;48.038;14.346;2023-09-19T10:02:19;1.75;;;0.90;;
82170;SDS011;71755;48.038;14.346;2023-09-19T10:05:14;1.95;;;1.00;;
82170;SDS011;71755;48.038;14.346;2023-09-19T10:07:54;2.38;;;0.95;;
82170;SDS011;71755;48.038;14.346;2023-09-19T10:10:37;3.40;;;0.63;;
82170;SDS011;71755;48.038;14.346;2023-09-19T10:13:07;0.88;;;0.68;;
82170;SDS011;71755;48.038;14.346;2023-09-19T10:15:39;1.13;;;0.75;;
82170;SDS011;71755;48.038;14.346;2023-09-19T10:18:11;1.48;;;0.73;;
82170;SDS011;71755;48.038;14.346;2023-09-19T10:20:46;1.52;;;0.90;;
82170;SDS011;71755;48.038;14.346;2023-09-19T10:23:19;1.20;;;0.90;;
82170;SDS011;71755;48.038;14.346;2023-09-19T10:25:51;1.50;;;1.30;;
82170;SDS011;71755;48.038;14.346;2023-09-19T10:28:19;3.67;;;0.82;;
82170;SDS011;71755;48.038;14.346;2023-09-19T10:30:51;1.58;;;1.00;;
82170;SDS011;71755;48.038;14.346;2023-09-19T10:33:19;2.15;;;1.10;;
82170;SDS011;71755;48.038;14.346;2023-09-19T10:35:50;0.73;;;0.60;;
82170;SDS011;71755;48.038;14.346;2023-09-19T10:38:19;1.33;;;0.60;;
82170;SDS011;71755;48.038;14.346;2023-09-19T10:40:54;1.10;;;1.00;;
82170;SDS011;71755;48.038;14.346;2023-09-19T10:43:26;2.33;;;0.60;;
82170;SDS011;71755;48.038;14.346;2023-09-19T10:45:58;2.15;;;1.55;;
82170;SDS011;71755;48.038;14.346;2023-09-19T10:48:29;0.80;;;0.63;;
82170;SDS011;71755;48.038;14.346;2023-09-19T10:53:50;1.27;;;0.82;;
82170;SDS011;71755;48.038;14.346;2023-09-19T10:56:23;0.68;;;0.50;;
82170;SDS011;71755;48.038;14.346;2023-09-19T10:59:11;0.80;;;0.50;;
82170;SDS011;71755;48.038;14.346;2023-09-19T11:01:48;1.17;;;0.70;;
82170;SDS011;71755;48.038;14.346;2023-09-19T11:07:10;0.60;;;0.50;;
82170;SDS011;71755;48.038;14.346;2023-09-19T11:09:46;1.35;;;0.45;;
82170;SDS011;71755;48.038;14.346;2023-09-19T11:15:06;3.92;;;0.75;;
82170;SDS011;71755;48.038;14.346;2023-09-19T11:17:36;1.63;;;0.82;;
82170;SDS011;71755;48.038;14.346;2023-09-19T11:30:48;1.35;;;0.75;;
82170;SDS011;71755;48.038;14.346;2023-09-19T11:33:30;1.95;;;0.68;;
82170;SDS011;71755;48.038;14.346;2023-09-19T11:36:05;0.90;;;0.60;;
82170;SDS011;71755;48.038;14.346;2023-09-19T11:43:46;5.10;;;1.30;;
82170;SDS011;71755;48.038;14.346;2023-09-19T11:46:12;2.58;;;1.65;;
82170;SDS011;71755;48.038;14.346;2023-09-19T11:48:42;2.28;;;1.05;;
82170;SDS011;71755;48.038;14.346;2023-09-19T11:51:14;0.77;;;0.77;;
82170;SDS011;71755;48.038;14.346;2023-09-19T11:53:47;2.42;;;1.10;;
82170;SDS011;71755;48.038;14.346;2023-09-19T11:56:18;1.85;;;0.88;;
82170;SDS011;71755;48.038;14.346;2023-09-19T11:58:50;2.92;;;1.05;;
82170;SDS011;71755;48.038;14.346;2023-09-19T12:03:55;2.72;;;0.82;;
82170;SDS011;71755;48.038;14.346;2023-09-19T12:06:24;1.40;;;0.80;;
82170;SDS011;71755;48.038;14.346;2023-09-19T12:08:51;3.53;;;1.13;;
82170;SDS011;71755;48.038;14.346;2023-09-19T12:11:23;1.20;;;0.90;;
82170;SDS011;71755;48.038;14.346;2023-09-19T12:13:50;1.23;;;0.85;;
82170;SDS011;71755;48.038;14.346;2023-09-19T12:16:21;1.80;;;0.77;;
82170;SDS011;71755;48.038;14.346;2023-09-19T12:18:48;2.35;;;1.20;;
82170;SDS011;71755;48.038;14.346;2023-09-19T12:21:52;2.50;;;1.00;;
82170;SDS011;71755;48.038;14.346;2023-09-19T12:24:11;0.88;;;0.60;;
82170;SDS011;71755;48.038;14.346;2023-09-19T12:26:44;2.08;;;0.85;;
82170;SDS011;71755;48.038;14.346;2023-09-19T12:29:14;1.13;;;0.80;;
82170;SDS011;71755;48.038;14.346;2023-09-19T12:31:53;4.10;;;0.90;;
82170;SDS011;71755;48.038;14.346;2023-09-19T12:34:24;1.00;;;0.60;;
82170;SDS011;71755;48.038;14.346;2023-09-19T12:40:06;2.35;;;1.10;;
82170;SDS011;71755;48.038;14.346;2023-09-19T12:42:46;1.92;;;1.27;;
82170;SDS011;71755;48.038;14.346;2023-09-19T12:45:14;1.52;;;0.80;;
82170;SDS011;71755;48.038;14.346;2023-09-19T12:51:04;1.95;;;1.15;;
82170;SDS011;71755;48.038;14.346;2023-09-19T12:53:41;1.15;;;0.82;;
82170;SDS011;71755;48.038;14.346;2023-09-19T12:56:10;2.83;;;1.00;;
82170;SDS011;71755;48.038;14.346;2023-09-19T13:01:21;2.90;;;0.90;;
82170;SDS011;71755;48.038;14.346;2023-09-19T13:07:00;2.33;;;1.42;;
82170;SDS011;71755;48.038;14.346;2023-09-19T13:09:30;1.20;;;0.93;;
82170;SDS011;71755;48.038;14.346;2023-09-19T13:12:00;1.70;;;1.35;;
82170;SDS011;71755;48.038;14.346;2023-09-19T13:14:28;1.85;;;1.17;;
82170;SDS011;71755;48.038;14.346;2023-09-19T13:19:46;3.28;;;0.85;;
82170;SDS011;71755;48.038;14.346;2023-09-19T13:25:17;1.92;;;0.93;;
82170;SDS011;71755;48.038;14.346;2023-09-19T13:27:54;3.63;;;1.17;;
82170;SDS011;71755;48.038;14.346;2023-09-19T13:30:23;1.27;;;0.80;;
82170;SDS011;71755;48.038;14.346;2023-09-19T13:32:50;1.17;;;0.90;;
82170;SDS011;71755;48.038;14.346;2023-09-19T13:35:18;0.98;;;0.80;;
82170;SDS011;71755;48.038;14.346;2023-09-19T13:37:44;1.58;;;0.82;;
82170;SDS011;71755;48.038;14.346;2023-09-19T13:40:17;3.10;;;0.80;;
82170;SDS011;71755;48.038;14.346;2023-09-19T13:42:43;1.73;;;1.00;;
82170;SDS011;71755;48.038;14.346;2023-09-19T13:45:09;1.38;;;0.85;;
82170;SDS011;71755;48.038;14.346;2023-09-19T13:47:37;2.15;;;0.90;;
82170;SDS011;71755;48.038;14.346;2023-09-19T13:50:04;2.60;;;0.98;;
82170;SDS011;71755;48.038;14.346;2023-09-19T13:52:31;0.98;;;0.70;;
82170;SDS011;71755;48.038;14.346;2023-09-19T13:54:57;1.58;;;0.90;;
82170;SDS011;71755;48.038;14.346;2023-09-19T13:57:25;1.58;;;0.70;;
82170;SDS011;71755;48.038;14.346;2023-09-19T13:59:52;3.30;;;0.77;;
82170;SDS011;71755;48.038;14.346;2023-09-19T14:02:23;1.70;;;0.98;;
82170;SDS011;71755;48.038;14.346;2023-09-19T14:04:49;0.60;;;0.43;;
82170;SDS011;71755;48.038;14.346;2023-09-19T14:07:16;0.85;;;0.60;;
82170;SDS011;71755;48.038;14.346;2023-09-19T14:09:43;2.25;;;0.50;;
82170;SDS011;71755;48.038;14.346;2023-09-19T14:12:11;0.30;;;0.30;;
82170;SDS011;71755;48.038;14.346;2023-09-19T14:14:37;1.25;;;0.98;;
82170;SDS011;71755;48.038;14.346;2023-09-19T14:17:04;2.33;;;0.57;;
82170;SDS011;71755;48.038;14.346;2023-09-19T14:19:33;1.55;;;0.50;;
82170;SDS011;71755;48.038;14.346;2023-09-19T14:22:02;1.90;;;0.73;;
82170;SDS011;71755;48.038;14.346;2023-09-19T14:26:58;1.25;;;0.60;;
82170;SDS011;71755;48.038;14.346;2023-09-19T14:29:24;0.90;;;0.50;;
82170;SDS011;71755;48.038;14.346;2023-09-19T14:31:50;0.50;;;0.50;;
82170;SDS011;71755;48.038;14.346;2023-09-19T14:34:17;0.88;;;0.40;;
82170;SDS011;71755;48.038;14.346;2023-09-19T14:36:45;1.38;;;0.30;;
82170;SDS011;71755;48.038;14.346;2023-09-19T14:39:11;2.97;;;1.80;;
82170;SDS011;71755;48.038;14.346;2023-09-19T14:41:37;1.92;;;0.57;;
82170;SDS011;71755;48.038;14.346;2023-09-19T14:44:03;1.30;;;0.68;;
82170;SDS011;71755;48.038;14.346;2023-09-19T14:46:30;1.60;;;0.40;;
82170;SDS011;71755;48.038;14.346;2023-09-19T14:48:56;0.68;;;0.50;;
82170;SDS011;71755;48.038;14.346;2023-09-19T14:51:28;0.98;;;0.47;;
82170;SDS011;71755;48.038;14.346;2023-09-19T14:53:55;0.80;;;0.50;;
82170;SDS011;71755;48.038;14.346;2023-09-19T14:56:22;0.50;;;0.40;;
82170;SDS011;71755;48.038;14.346;2023-09-19T14:58:49;0.73;;;0.40;;
82170;SDS011;71755;48.038;14.346;2023-09-19T15:01:16;0.43;;;0.30;;
82170;SDS011;71755;48.038;14.346;2023-09-19T15:03:43;1.35;;;0.50;;
82170;SDS011;71755;48.038;14.346;2023-09-19T15:06:10;0.95;;;0.40;;
82170;SDS011;71755;48.038;14.346;2023-09-19T15:08:45;0.50;;;0.40;;
82170;SDS011;71755;48.038;14.346;2023-09-19T15:11:18;1.65;;;0.65;;
82170;SDS011;71755;48.038;14.346;2023-09-19T15:13:46;1.30;;;0.47;;
82170;SDS011;71755;48.038;14.346;2023-09-19T15:16:13;1.95;;;0.68;;
82170;SDS011;71755;48.038;14.346;2023-09-19T15:18:41;2.17;;;0.45;;
82170;SDS011;71755;48.038;14.346;2023-09-19T15:21:08;0.30;;;0.30;;
82170;SDS011;71755;48.038;14.346;2023-09-19T15:23:36;0.40;;;0.20;;
82170;SDS011;71755;48.038;14.346;2023-09-19T15:26:04;6.97;;;1.00;;
82170;SDS011;71755;48.038;14.346;2023-09-19T15:28:30;1.30;;;0.45;;
82170;SDS011;71755;48.038;14.346;2023-09-19T15:31:01;0.90;;;0.52;;
82170;SDS011;71755;48.038;14.346;2023-09-19T15:36:03;1.95;;;0.40;;
82170;SDS011;71755;48.038;14.346;2023-09-19T15:41:37;1.48;;;0.40;;
82170;SDS011;71755;48.038;14.346;2023-09-19T15:44:10;0.75;;;0.40;;
82170;SDS011;71755;48.038;14.346;2023-09-19T15:46:37;0.82;;;0.60;;
82170;SDS011;71755;48.038;14.346;2023-09-19T15:49:03;0.73;;;0.52;;
82170;SDS011;71755;48.038;14.346;2023-09-19T15:51:29;1.67;;;0.70;;
82170;SDS011;71755;48.038;14.346;2023-09-19T15:53:56;0.43;;;0.30;;
82170;SDS011;71755;48.038;14.346;2023-09-19T15:56:22;0.30;;;0.30;;
82170;SDS011;71755;48.038;14.346;2023-09-19T15:58:50;0.50;;;0.50;;
82170;SDS011;71755;48.038;14.346;2023-09-19T16:01:20;293.15;;;88.57;;
82170;SDS011;71755;48.038;14.346;2023-09-19T16:03:48;301.85;;;108.10;;
82170;SDS011;71755;48.038;14.346;2023-09-19T16:06:15;207.45;;;94.80;;
82170;SDS011;71755;48.038;14.346;2023-09-19T16:08:45;165.13;;;71.35;;
82170;SDS011;71755;48.038;14.346;2023-09-19T16:11:12;30.65;;;15.48;;